createdAt,value
2019-06-26T00:01:17.309Z,14.47
2019-06-26T00:03:43.115Z,13.83
2019-06-26T00:06:08.930Z,13.20
2019-06-26T00:08:34.741Z,14.20
2019-06-26T00:11:00.577Z,14.70
2019-06-26T00:13:27.053Z,13.23
2019-06-26T00:15:53.079Z,16.43
2019-06-26T00:18:18.976Z,14.20
2019-06-26T00:20:45.011Z,14.20
2019-06-26T00:23:10.828Z,14.70
2019-06-26T00:25:36.721Z,14.20
2019-06-26T00:28:02.550Z,14.23
2019-06-26T00:30:28.434Z,14.67
2019-06-26T00:32:54.459Z,14.37
2019-06-26T00:35:20.374Z,15.40
2019-06-26T00:37:46.258Z,14.37
2019-06-26T00:40:12.491Z,13.67
2019-06-26T00:42:38.291Z,14.20
2019-06-26T00:45:04.812Z,14.50
2019-06-26T00:47:30.700Z,15.00
2019-06-26T00:49:56.532Z,14.33
2019-06-26T00:52:22.533Z,12.33
2019-06-26T00:54:48.388Z,14.67
2019-06-26T00:57:14.214Z,14.17
2019-06-26T00:59:40.157Z,14.20
2019-06-26T01:02:06.183Z,14.60
2019-06-26T01:04:36.699Z,13.43
2019-06-26T01:07:02.618Z,14.40
2019-06-26T01:09:28.458Z,13.73
2019-06-26T01:11:54.333Z,13.40
2019-06-26T01:14:20.290Z,14.43
2019-06-26T01:16:46.279Z,13.67
2019-06-26T01:19:12.179Z,14.27
2019-06-26T01:21:38.179Z,14.83
2019-06-26T01:24:04.111Z,15.07
2019-06-26T01:26:29.962Z,14.47
2019-06-26T01:28:55.802Z,14.60
2019-06-26T01:31:21.747Z,13.47
2019-06-26T01:33:47.630Z,15.70
2019-06-26T01:36:13.688Z,14.80
2019-06-26T01:38:39.517Z,14.60
2019-06-26T01:41:05.490Z,13.83
2019-06-26T01:43:31.320Z,14.13
2019-06-26T01:45:57.275Z,14.63
2019-06-26T01:48:23.099Z,15.90
2019-06-26T01:50:48.965Z,15.20
2019-06-26T01:53:14.809Z,14.00
2019-06-26T01:55:40.740Z,14.77
2019-06-26T01:58:06.586Z,15.37
2019-06-26T02:00:32.677Z,13.90
2019-06-26T02:02:58.502Z,13.97
2019-06-26T02:05:24.366Z,14.63
2019-06-26T02:07:50.391Z,13.83
2019-06-26T02:10:16.540Z,14.40
2019-06-26T02:12:42.357Z,13.70
2019-06-26T02:15:08.885Z,14.30
2019-06-26T02:17:34.923Z,14.67
2019-06-26T02:20:00.788Z,14.13
2019-06-26T02:22:26.622Z,14.33
2019-06-26T02:24:52.458Z,13.70
2019-06-26T02:27:18.413Z,13.70
2019-06-26T02:29:44.256Z,13.97
2019-06-26T02:32:10.213Z,14.40
2019-06-26T02:34:36.283Z,13.70
2019-06-26T02:37:02.180Z,13.47
2019-06-26T02:39:28.250Z,13.03
2019-06-26T02:41:54.117Z,13.40
2019-06-26T02:44:19.956Z,13.40
2019-06-26T02:46:45.905Z,13.00
2019-06-26T02:49:11.834Z,14.87
2019-06-26T02:51:37.677Z,14.57
2019-06-26T02:54:03.760Z,13.13
2019-06-26T02:56:29.699Z,13.67
2019-06-26T02:58:55.611Z,14.93
2019-06-26T03:01:21.470Z,13.70
2019-06-26T03:03:47.407Z,14.13
2019-06-26T03:06:13.348Z,14.50
2019-06-26T03:08:39.296Z,14.40
2019-06-26T03:11:05.255Z,15.17
2019-06-26T03:13:31.191Z,15.67
2019-06-26T03:15:57.148Z,13.80
2019-06-26T03:18:22.993Z,14.83
2019-06-26T03:20:55.015Z,13.80
2019-06-26T03:23:20.959Z,14.40
2019-06-26T03:25:46.810Z,14.37
2019-06-26T03:28:12.799Z,12.67
2019-06-26T03:30:38.847Z,14.30
2019-06-26T03:33:04.679Z,13.80
2019-06-26T03:35:30.595Z,12.97
2019-06-26T03:37:56.447Z,14.30
2019-06-26T03:40:22.430Z,14.07
2019-06-26T03:42:48.265Z,14.73
2019-06-26T03:45:25.248Z,12.90
2019-06-26T03:47:42.992Z,14.37
2019-06-26T03:50:10.440Z,13.53
2019-06-26T03:52:36.291Z,13.90
2019-06-26T03:55:03.318Z,13.93
2019-06-26T03:57:29.180Z,14.17
2019-06-26T03:59:55.010Z,13.70
2019-06-26T04:02:20.966Z,12.60
2019-06-26T04:04:46.921Z,13.03
2019-06-26T04:07:12.732Z,14.10
2019-06-26T04:09:38.600Z,14.43
2019-06-26T04:12:04.565Z,15.40
2019-06-26T04:14:32.863Z,13.83
2019-06-26T04:16:58.796Z,14.60
2019-06-26T04:19:24.825Z,15.40
2019-06-26T04:21:50.908Z,14.37
2019-06-26T04:24:16.729Z,14.13
2019-06-26T04:26:42.594Z,14.03
2019-06-26T04:29:08.475Z,13.90
2019-06-26T04:31:34.415Z,14.33
2019-06-26T04:34:00.346Z,14.70
2019-06-26T04:36:26.185Z,13.87
2019-06-26T04:38:52.013Z,14.70
2019-06-26T04:41:17.864Z,14.43
2019-06-26T04:43:43.700Z,14.80
2019-06-26T04:46:09.658Z,14.93
2019-06-26T04:48:35.494Z,14.37
2019-06-26T04:51:01.333Z,14.10
2019-06-26T04:53:27.192Z,13.90
2019-06-26T04:55:53.214Z,14.50
2019-06-26T04:58:19.091Z,16.63
2019-06-26T05:00:44.905Z,14.20
2019-06-26T05:03:10.751Z,14.60
2019-06-26T05:05:39.954Z,14.53
2019-06-26T05:08:04.521Z,15.20
2019-06-26T05:10:30.364Z,13.40
2019-06-26T05:12:56.187Z,14.77
2019-06-26T05:15:22.230Z,14.33
2019-06-26T05:17:48.198Z,15.70
2019-06-26T05:20:14.624Z,16.07
2019-06-26T05:22:40.497Z,16.30
2019-06-26T05:25:06.747Z,15.33
2019-06-26T05:27:32.594Z,16.50
2019-06-26T05:29:58.443Z,15.30
2019-06-26T05:32:24.281Z,15.90
2019-06-26T05:34:50.314Z,16.97
2019-06-26T05:37:16.181Z,16.17
2019-06-26T05:39:42.109Z,15.50
2019-06-26T05:42:08.360Z,15.50
2019-06-26T05:44:34.242Z,16.67
2019-06-26T05:47:00.266Z,15.10
2019-06-26T05:49:26.182Z,15.50
2019-06-26T05:51:52.053Z,14.80
2019-06-26T05:54:17.989Z,14.63
2019-06-26T05:56:45.440Z,15.93
2019-06-26T05:59:11.450Z,14.07
2019-06-26T06:01:37.385Z,16.07
2019-06-26T06:04:03.339Z,15.90
2019-06-26T06:06:41.019Z,15.20
2019-06-26T06:08:57.118Z,15.23
2019-06-26T06:11:22.955Z,14.37
2019-06-26T06:13:48.908Z,15.70
2019-06-26T06:16:14.865Z,13.60
2019-06-26T06:18:40.723Z,13.90
2019-06-26T06:21:06.552Z,14.30
2019-06-26T06:23:32.791Z,16.57
2019-06-26T06:25:58.614Z,15.30
2019-06-26T06:28:24.607Z,15.40
2019-06-26T06:30:50.510Z,14.97
2019-06-26T06:33:16.537Z,14.40
2019-06-26T06:35:42.387Z,15.07
2019-06-26T06:38:08.232Z,13.77
2019-06-26T06:40:34.170Z,13.53
2019-06-26T06:43:00.274Z,13.80
2019-06-26T06:45:26.512Z,14.90
2019-06-26T06:47:52.345Z,15.07
2019-06-26T06:50:18.351Z,14.10
2019-06-26T06:52:44.273Z,13.63
2019-06-26T06:55:10.622Z,13.17
2019-06-26T06:57:36.593Z,13.50
2019-06-26T07:00:04.719Z,14.20
2019-06-26T07:02:30.648Z,13.50
2019-06-26T07:04:56.494Z,13.87
2019-06-26T07:07:22.440Z,14.70
2019-06-26T07:09:48.292Z,14.10
2019-06-26T07:12:14.127Z,13.57
2019-06-26T07:14:39.990Z,13.90
2019-06-26T07:17:19.330Z,13.10
2019-06-26T07:19:33.605Z,14.67
2019-06-26T07:21:59.531Z,14.03
2019-06-26T07:24:25.477Z,14.47
2019-06-26T07:26:51.394Z,14.00
2019-06-26T07:29:17.251Z,13.73
2019-06-26T07:31:43.089Z,12.97
2019-06-26T07:34:09.027Z,14.40
2019-06-26T07:36:34.946Z,13.50
2019-06-26T07:39:00.898Z,12.87
2019-06-26T07:41:26.736Z,14.03
2019-06-26T07:43:52.695Z,11.80
2019-06-26T07:46:18.556Z,12.30
2019-06-26T07:48:44.383Z,12.70
2019-06-26T07:51:10.226Z,13.60
2019-06-26T07:53:36.061Z,12.87
2019-06-26T07:56:02.109Z,11.77
2019-06-26T07:58:28.058Z,11.13
2019-06-26T08:00:53.890Z,11.57
2019-06-26T08:03:19.849Z,11.53
2019-06-26T08:05:45.688Z,12.80
2019-06-26T08:08:14.554Z,10.90
2019-06-26T08:10:40.277Z,10.57
2019-06-26T08:13:06.213Z,11.27
2019-06-26T08:15:32.259Z,11.13
2019-06-26T08:18:01.110Z,10.40
2019-06-26T08:20:25.869Z,11.30
2019-06-26T08:22:51.684Z,11.00
2019-06-26T08:25:18.464Z,10.80
2019-06-26T08:27:44.381Z,10.70
2019-06-26T08:30:10.658Z,10.00
2019-06-26T08:32:36.501Z,10.80
2019-06-26T08:35:04.544Z,9.27
2019-06-26T08:37:30.380Z,9.10
2019-06-26T08:39:56.236Z,8.87
2019-06-26T08:42:22.184Z,8.03
2019-06-26T08:44:48.134Z,8.37
2019-06-26T08:47:14.069Z,9.50
2019-06-26T08:49:40.020Z,8.67
2019-06-26T08:52:06.074Z,7.83
2019-06-26T08:54:32.136Z,7.87
2019-06-26T08:56:57.961Z,8.17
2019-06-26T08:59:23.925Z,8.10
2019-06-26T09:01:49.773Z,6.83
2019-06-26T09:04:15.623Z,7.80
2019-06-26T09:06:41.519Z,8.03
2019-06-26T09:09:07.577Z,7.30
2019-06-26T09:11:34.100Z,7.23
2019-06-26T09:13:59.923Z,7.53
2019-06-26T09:16:25.782Z,7.10
2019-06-26T09:18:51.595Z,6.77
2019-06-26T09:21:17.652Z,8.03
2019-06-26T09:23:43.809Z,6.60
2019-06-26T09:26:09.823Z,8.03
2019-06-26T09:28:35.765Z,7.93
2019-06-26T09:31:01.600Z,7.57
2019-06-26T09:33:27.457Z,7.37
2019-06-26T09:35:53.380Z,7.83
2019-06-26T09:38:19.317Z,7.23
2019-06-26T09:40:45.151Z,7.77
2019-06-26T09:43:11.004Z,7.40
2019-06-26T09:45:37.080Z,7.00
2019-06-26T09:48:03.034Z,7.70
2019-06-26T09:50:28.948Z,7.63
2019-06-26T09:52:54.872Z,7.20
2019-06-26T09:55:20.825Z,7.63
2019-06-26T09:57:46.746Z,7.33
2019-06-26T10:00:17.614Z,7.10
2019-06-26T10:02:43.543Z,7.43
2019-06-26T10:05:09.736Z,7.40
2019-06-26T10:07:35.647Z,7.23
2019-06-26T10:10:01.583Z,6.77
2019-06-26T10:12:27.599Z,7.80
2019-06-26T10:14:53.555Z,7.80
2019-06-26T10:17:19.375Z,7.03
2019-06-26T10:19:45.229Z,7.67
2019-06-26T10:22:11.040Z,7.17
2019-06-26T10:24:36.887Z,7.77
2019-06-26T10:27:02.835Z,7.60
2019-06-26T10:29:28.847Z,6.00
2019-06-26T10:31:55.112Z,6.60
2019-06-26T10:34:21.000Z,6.70
2019-06-26T10:36:46.998Z,6.50
2019-06-26T10:39:12.996Z,6.83
2019-06-26T10:41:38.868Z,7.00
2019-06-26T10:44:04.918Z,7.50
2019-06-26T10:46:30.790Z,7.07
2019-06-26T10:48:56.751Z,7.00
2019-06-26T10:51:22.599Z,8.13
2019-06-26T10:53:48.458Z,7.60
2019-06-26T10:56:14.382Z,8.00
2019-06-26T10:58:40.239Z,7.80
2019-06-26T11:01:06.050Z,6.97
2019-06-26T11:03:31.908Z,6.33
2019-06-26T11:05:57.933Z,8.30
2019-06-26T11:08:23.854Z,6.87
2019-06-26T11:10:49.729Z,7.50
2019-06-26T11:13:15.636Z,7.03
2019-06-26T11:15:41.578Z,7.60
2019-06-26T11:18:07.423Z,8.10
2019-06-26T11:20:33.375Z,8.00
2019-06-26T11:22:59.192Z,7.87
2019-06-26T11:25:25.034Z,7.87
2019-06-26T11:27:50.978Z,8.60
2019-06-26T11:30:18.140Z,8.00
2019-06-26T11:32:44.056Z,6.60
2019-06-26T11:35:10.088Z,6.17
2019-06-26T11:37:36.001Z,7.70
2019-06-26T11:40:03.945Z,7.17
2019-06-26T11:42:32.679Z,8.03
2019-06-26T11:44:57.558Z,8.20
2019-06-26T11:47:23.589Z,6.10
2019-06-26T11:49:59.267Z,6.00
2019-06-26T11:52:17.352Z,6.77
2019-06-26T11:54:43.168Z,6.20
2019-06-26T11:57:09.025Z,5.90
2019-06-26T11:59:35.055Z,5.50
2019-06-26T12:02:00.892Z,6.43
2019-06-26T12:04:26.819Z,6.47
2019-06-26T12:06:52.893Z,6.07
2019-06-26T12:09:18.882Z,6.10
2019-06-26T12:11:44.714Z,6.40
2019-06-26T12:14:10.753Z,6.63
2019-06-26T12:16:36.727Z,7.80
2019-06-26T12:19:02.751Z,5.90
2019-06-26T12:21:28.577Z,5.90
2019-06-26T12:23:54.422Z,6.13
2019-06-26T12:26:20.277Z,5.60
2019-06-26T12:28:46.241Z,6.80
2019-06-26T12:31:12.120Z,5.43
2019-06-26T12:33:37.941Z,6.10
2019-06-26T12:36:03.903Z,5.80
2019-06-26T12:38:30.064Z,5.60
2019-06-26T12:40:56.010Z,6.33
2019-06-26T12:43:22.067Z,5.53
2019-06-26T12:45:47.914Z,7.17
2019-06-26T12:48:16.116Z,5.87
2019-06-26T12:50:41.595Z,6.37
2019-06-26T12:53:07.482Z,5.63
2019-06-26T12:55:33.318Z,6.17
2019-06-26T12:58:12.522Z,6.13
2019-06-26T13:00:27.117Z,6.27
2019-06-26T13:02:52.995Z,5.73
2019-06-26T13:05:18.947Z,6.30
2019-06-26T13:07:44.911Z,7.57
2019-06-26T13:10:11.058Z,5.40
2019-06-26T13:12:37.130Z,6.13
2019-06-26T13:15:07.572Z,6.60
2019-06-26T13:17:33.635Z,5.93
2019-06-26T13:20:00.829Z,6.23
2019-06-26T13:22:26.642Z,6.10
2019-06-26T13:24:52.612Z,5.97
2019-06-26T13:27:18.539Z,5.90
2019-06-26T13:29:44.403Z,6.87
2019-06-26T13:32:10.245Z,5.83
2019-06-26T13:34:36.094Z,6.23
2019-06-26T13:37:02.043Z,6.80
2019-06-26T13:39:27.936Z,6.80
2019-06-26T13:41:53.795Z,7.10
2019-06-26T13:44:20.041Z,6.63
2019-06-26T13:46:45.896Z,6.70
2019-06-26T13:49:11.778Z,7.27
2019-06-26T13:51:37.717Z,6.83
2019-06-26T13:54:03.574Z,6.10
2019-06-26T13:56:29.415Z,6.03
2019-06-26T13:58:55.296Z,6.60
2019-06-26T14:01:23.196Z,8.37
2019-06-26T14:03:48.920Z,7.03
2019-06-26T14:06:14.754Z,7.43
2019-06-26T14:08:40.693Z,7.80
2019-06-26T14:11:07.689Z,7.50
2019-06-26T14:13:33.639Z,7.63
2019-06-26T14:15:59.617Z,7.00
2019-06-26T14:18:25.458Z,6.70
2019-06-26T14:20:51.412Z,7.33
2019-06-26T14:23:17.381Z,7.47
2019-06-26T14:25:43.322Z,6.90
2019-06-26T14:28:09.194Z,7.30
2019-06-26T14:30:35.162Z,6.97
2019-06-26T14:33:01.023Z,7.03
2019-06-26T14:35:26.973Z,6.10
2019-06-26T14:37:52.819Z,7.80
2019-06-26T14:40:18.751Z,6.90
2019-06-26T14:42:44.618Z,7.07
2019-06-26T14:45:11.643Z,7.83
2019-06-26T14:47:37.520Z,7.07
2019-06-26T14:50:04.393Z,7.70
2019-06-26T14:52:30.401Z,8.20
2019-06-26T14:54:56.299Z,8.80
2019-06-26T14:57:25.883Z,6.80
2019-06-26T14:59:49.995Z,8.13
2019-06-26T15:02:15.965Z,7.93
2019-06-26T15:04:41.781Z,9.10
2019-06-26T15:07:07.615Z,7.77
2019-06-26T15:09:33.460Z,7.93
2019-06-26T15:11:59.310Z,8.40
2019-06-26T15:14:25.151Z,7.80
2019-06-26T15:16:51.097Z,8.13
2019-06-26T15:19:17.041Z,9.50
2019-06-26T15:21:57.516Z,7.50
2019-06-26T15:24:10.750Z,8.53
2019-06-26T15:26:36.722Z,8.50
2019-06-26T15:29:02.843Z,8.03
2019-06-26T15:31:28.696Z,9.90
2019-06-26T15:33:54.689Z,8.83
2019-06-26T15:36:20.531Z,9.07
2019-06-26T15:38:46.613Z,8.37
2019-06-26T15:41:12.652Z,8.20
2019-06-26T15:43:38.631Z,9.00
2019-06-26T15:46:04.500Z,8.90
2019-06-26T15:48:30.452Z,8.47
2019-06-26T15:50:56.293Z,8.43
2019-06-26T15:53:22.181Z,8.60
2019-06-26T15:55:48.018Z,8.40
2019-06-26T15:58:13.885Z,10.17
2019-06-26T16:00:39.775Z,10.07
2019-06-26T16:03:05.680Z,8.97
2019-06-26T16:05:31.520Z,9.50
2019-06-26T16:07:57.378Z,8.93
2019-06-26T16:10:23.323Z,7.77
2019-06-26T16:12:49.227Z,7.90
2019-06-26T16:15:15.101Z,9.33
2019-06-26T16:17:54.772Z,9.00
2019-06-26T16:20:20.720Z,8.63
2019-06-26T16:22:46.569Z,9.13
2019-06-26T16:25:12.725Z,8.73
2019-06-26T16:27:38.569Z,8.10
2019-06-26T16:30:05.218Z,8.23
2019-06-26T16:32:31.101Z,8.67
2019-06-26T16:34:56.956Z,8.10
2019-06-26T16:37:22.777Z,8.80
2019-06-26T16:39:48.731Z,8.20
2019-06-26T16:42:14.585Z,9.00
2019-06-26T16:44:40.458Z,9.30
2019-06-26T16:47:08.453Z,8.23
2019-06-26T16:49:34.304Z,7.80
2019-06-26T16:52:00.186Z,9.40
2019-06-26T16:54:26.055Z,8.23
2019-06-26T16:56:51.910Z,8.37
2019-06-26T16:59:17.810Z,9.20
2019-06-26T17:01:45.725Z,9.30
2019-06-26T17:04:11.707Z,9.17
2019-06-26T17:06:37.544Z,9.53
2019-06-26T17:09:05.244Z,9.00
2019-06-26T17:11:31.190Z,9.13
2019-06-26T17:13:57.065Z,8.40
2019-06-26T17:16:23.020Z,9.03
2019-06-26T17:18:48.970Z,9.37
2019-06-26T17:21:14.842Z,10.10
2019-06-26T17:23:40.707Z,9.93
2019-06-26T17:26:06.569Z,9.60
2019-06-26T17:28:32.536Z,8.60
2019-06-26T17:30:58.491Z,9.57
2019-06-26T17:33:24.349Z,9.53
2019-06-26T17:35:50.582Z,9.57
2019-06-26T17:38:16.413Z,9.50
2019-06-26T17:40:42.272Z,9.87
2019-06-26T17:43:12.656Z,11.00
2019-06-26T17:45:36.027Z,9.77
2019-06-26T17:48:01.980Z,9.50
2019-06-26T17:50:27.787Z,9.23
2019-06-26T17:52:53.655Z,10.00
2019-06-26T17:55:19.635Z,10.17
2019-06-26T17:57:47.647Z,9.50
2019-06-26T18:00:13.443Z,9.90
2019-06-26T18:02:39.315Z,9.70
2019-06-26T18:05:05.685Z,9.17
2019-06-26T18:07:31.543Z,9.40
2019-06-26T18:09:57.399Z,9.47
2019-06-26T18:12:23.233Z,10.37
2019-06-26T18:14:49.113Z,10.13
2019-06-26T18:17:22.181Z,10.23
2019-06-26T18:19:42.701Z,8.93
2019-06-26T18:22:08.573Z,9.10
2019-06-26T18:24:34.443Z,8.37
2019-06-26T18:27:00.281Z,9.57
2019-06-26T18:29:26.157Z,8.40
2019-06-26T18:31:52.019Z,9.20
2019-06-26T18:34:17.846Z,8.43
2019-06-26T18:36:43.702Z,8.03
2019-06-26T18:39:09.540Z,8.60
2019-06-26T18:41:35.399Z,8.23
2019-06-26T18:44:01.401Z,8.17
2019-06-26T18:46:27.284Z,7.63
2019-06-26T18:48:53.143Z,7.23
2019-06-26T18:51:19.069Z,7.47
2019-06-26T18:53:53.469Z,8.33
2019-06-26T18:56:12.881Z,8.20
2019-06-26T18:58:38.682Z,7.97
2019-06-26T19:01:04.536Z,8.30
2019-06-26T19:03:30.362Z,7.43
2019-06-26T19:05:56.216Z,6.90
2019-06-26T19:08:22.103Z,7.60
2019-06-26T19:10:47.985Z,7.93
2019-06-26T19:13:13.842Z,7.00
2019-06-26T19:15:39.721Z,8.43
2019-06-26T19:18:05.570Z,9.27
2019-06-26T19:20:33.812Z,7.80
2019-06-26T19:22:59.292Z,8.70
2019-06-26T19:25:25.177Z,8.60
2019-06-26T19:27:51.046Z,9.10
2019-06-26T19:30:17.200Z,9.53
2019-06-26T19:32:43.057Z,8.67
2019-06-26T19:35:18.399Z,8.90
2019-06-26T19:37:36.746Z,7.90
2019-06-26T19:40:03.792Z,8.60
2019-06-26T19:42:29.684Z,8.40
2019-06-26T19:44:55.553Z,8.53
2019-06-26T19:47:21.419Z,8.50
2019-06-26T19:49:47.315Z,8.93
2019-06-26T19:52:13.191Z,8.27
2019-06-26T19:54:39.056Z,8.90
2019-06-26T19:57:05.025Z,8.73
2019-06-26T19:59:30.878Z,9.57
2019-06-26T20:01:56.742Z,9.00
2019-06-26T20:04:22.619Z,9.57
2019-06-26T20:06:48.571Z,9.03
2019-06-26T20:09:14.453Z,9.20
2019-06-26T20:11:40.311Z,9.53
2019-06-26T20:14:06.174Z,8.70
2019-06-26T20:16:32.039Z,8.40
2019-06-26T20:18:57.895Z,9.60
2019-06-26T20:21:23.857Z,9.40
2019-06-26T20:23:49.718Z,10.03
2019-06-26T20:26:15.608Z,9.73
2019-06-26T20:28:41.450Z,8.83
2019-06-26T20:31:07.346Z,8.97
2019-06-26T20:33:33.181Z,9.00
2019-06-26T20:35:59.848Z,10.63
2019-06-26T20:38:25.700Z,9.43
2019-06-26T20:40:51.528Z,9.27
2019-06-26T20:43:17.493Z,9.00
2019-06-26T20:45:43.349Z,10.23
2019-06-26T20:48:09.224Z,10.90
2019-06-26T20:50:35.080Z,10.33
2019-06-26T20:53:00.970Z,10.00
2019-06-26T20:55:26.823Z,10.93
2019-06-26T20:57:52.684Z,12.33
2019-06-26T21:00:22.354Z,12.20
2019-06-26T21:02:46.305Z,12.17
2019-06-26T21:05:12.194Z,11.97
2019-06-26T21:07:38.109Z,11.80
2019-06-26T21:10:04.344Z,12.70
2019-06-26T21:12:30.209Z,12.80
2019-06-26T21:14:56.043Z,12.00
2019-06-26T21:17:25.450Z,11.13
2019-06-26T21:19:49.636Z,11.47
2019-06-26T21:22:15.499Z,10.67
2019-06-26T21:24:41.347Z,10.47
2019-06-26T21:27:07.195Z,12.70
2019-06-26T21:29:33.047Z,14.17
2019-06-26T21:31:58.916Z,13.67
2019-06-26T21:34:24.774Z,14.10
2019-06-26T21:36:50.620Z,15.20
2019-06-26T21:39:16.464Z,13.77
2019-06-26T21:41:42.311Z,15.30
2019-06-26T21:44:08.187Z,14.83
2019-06-26T21:46:34.038Z,13.70
2019-06-26T21:48:59.949Z,13.37
2019-06-26T21:51:25.791Z,13.77
2019-06-26T21:53:51.699Z,14.83
2019-06-26T21:56:17.564Z,13.13
2019-06-26T21:58:43.399Z,13.40
2019-06-26T22:01:09.274Z,13.33
2019-06-26T22:03:35.111Z,13.77
2019-06-26T22:06:01.074Z,13.00
2019-06-26T22:08:27.152Z,12.57
2019-06-26T22:10:53.183Z,12.50
2019-06-26T22:13:19.037Z,13.83
2019-06-26T22:15:44.977Z,14.67
2019-06-26T22:18:10.832Z,14.77
2019-06-26T22:20:36.680Z,14.00
2019-06-26T22:23:02.752Z,14.30
2019-06-26T22:25:28.596Z,13.90
2019-06-26T22:27:54.460Z,12.10
2019-06-26T22:30:20.610Z,12.73
2019-06-26T22:32:46.470Z,13.90
2019-06-26T22:35:12.421Z,14.00
2019-06-26T22:37:38.346Z,13.30
2019-06-26T22:40:05.099Z,14.57
2019-06-26T22:42:31.042Z,13.57
2019-06-26T22:44:56.928Z,13.90
2019-06-26T22:47:22.767Z,14.33
2019-06-26T22:49:48.639Z,14.23
2019-06-26T22:52:14.485Z,13.20
2019-06-26T22:54:40.347Z,13.90
2019-06-26T22:57:06.195Z,14.17
2019-06-26T22:59:32.049Z,13.50
2019-06-26T23:01:57.971Z,13.20
2019-06-26T23:04:23.908Z,14.53
2019-06-26T23:06:49.778Z,15.10
2019-06-26T23:09:15.723Z,15.20
2019-06-26T23:11:41.583Z,14.40
2019-06-26T23:14:07.407Z,14.30
2019-06-26T23:16:33.249Z,13.70
2019-06-26T23:18:59.111Z,13.60
2019-06-26T23:21:25.220Z,13.83
2019-06-26T23:23:51.057Z,14.00
2019-06-26T23:26:23.881Z,13.33
2019-06-26T23:28:44.664Z,14.07
2019-06-26T23:31:10.626Z,13.67
2019-06-26T23:33:36.486Z,15.57
2019-06-26T23:36:02.435Z,16.87
2019-06-26T23:38:28.357Z,17.87
2019-06-26T23:40:54.204Z,18.30
2019-06-26T23:43:20.234Z,19.63
2019-06-26T23:45:46.090Z,18.30
2019-06-26T23:48:11.934Z,16.20
2019-06-26T23:50:37.789Z,15.60
2019-06-26T23:53:03.644Z,14.60
2019-06-26T23:55:29.506Z,16.30
2019-06-26T23:57:59.334Z,15.17
